Time,TemperatureF,DewpointF,PressureIn,WindDirection,WindDirectionDegrees,WindSpeedMPH,WindSpeedGustMPH,Humidity,HourlyPrecipIn,Conditions,Clouds,dailyrainin,SoftwareType,DateUTC
2013-05-20 00:10:00,55.6,55.3,30.10,South,180,3.7,-999.0,99,-99.99,,,0.00,Acu-Link.com,2013-05-20 04:10:00,
2013-05-20 00:25:00,55.6,55.3,30.09,SSE,157,1.1,-999.0,99,-99.99,,,0.00,Acu-Link.com,2013-05-20 04:25:00,
2013-05-20 00:40:00,55.6,55.3,30.08,ENE,67,3.2,-999.0,99,-99.99,,,0.01,Acu-Link.com,2013-05-20 04:40:00,
2013-05-20 00:56:00,55.8,55.5,30.07,ESE,112,0.0,-999.0,99,-99.99,,,0.01,Acu-Link.com,2013-05-20 04:56:00,
2013-05-20 01:11:00,55.8,55.5,30.06,SSW,202,3.7,-999.0,99,-99.99,,,0.01,Acu-Link.com,2013-05-20 05:11:00,
2013-05-20 01:26:00,56.1,55.8,30.06,SSE,157,2.2,-999.0,99,-99.99,,,0.01,Acu-Link.com,2013-05-20 05:26:00,
2013-05-20 01:41:00,56.3,56.0,30.06,West,270,1.7,-999.0,99,-99.99,,,0.01,Acu-Link.com,2013-05-20 05:41:00,
2013-05-20 01:56:00,56.5,56.2,30.05,SSW,202,0.0,-999.0,99,-99.99,,,0.01,Acu-Link.com,2013-05-20 05:56:00,
2013-05-20 02:11:00,56.7,56.4,30.04,East,90,3.2,-999.0,99,-99.99,,,0.01,Acu-Link.com,2013-05-20 06:11:00,
2013-05-20 02:26:00,56.8,56.5,30.03,South,180,2.7,-999.0,99,-99.99,,,0.01,Acu-Link.com,2013-05-20 06:26:00,
2013-05-20 02:41:00,56.8,56.5,30.02,SSE,157,1.7,-999.0,99,-99.99,,,0.02,Acu-Link.com,2013-05-20 06:41:00,
2013-05-20 02:56:00,57.0,56.7,30.02,South,180,2.7,-999.0,99,-99.99,,,0.02,Acu-Link.com,2013-05-20 06:56:00,
2013-05-20 03:12:00,57.2,56.9,30.00,ESE,112,3.7,-999.0,99,-99.99,,,0.02,Acu-Link.com,2013-05-20 07:12:00,
2013-05-20 03:27:00,57.2,56.9,30.00,SE,135,3.2,-999.0,99,-99.99,,,0.02,Acu-Link.com,2013-05-20 07:27:00,
2013-05-20 03:42:00,57.2,56.9,29.99,SE,135,2.2,-999.0,99,-99.99,,,0.02,Acu-Link.com,2013-05-20 07:42:00,
2013-05-20 03:57:00,57.2,56.9,29.98,ESE,112,2.7,-999.0,99,-99.99,,,0.02,Acu-Link.com,2013-05-20 07:57:00,
2013-05-20 04:13:00,57.4,57.1,29.98,SSW,202,3.2,-999.0,99,-99.99,,,0.02,Acu-Link.com,2013-05-20 08:13:00,
2013-05-20 04:29:00,57.4,57.1,29.98,ESE,112,0.0,-999.0,99,-99.99,,,0.02,Acu-Link.com,2013-05-20 08:29:00,
2013-05-20 04:44:00,57.4,57.1,29.98,SSW,202,3.2,-999.0,99,-99.99,,,0.02,Acu-Link.com,2013-05-20 08:44:00,
2013-05-20 04:59:00,57.4,57.1,29.97,WSW,247,1.7,-999.0,99,-99.99,,,0.02,Acu-Link.com,2013-05-20 08:59:00,
2013-05-20 05:14:00,57.4,57.1,29.96,SW,225,2.7,-999.0,99,-99.99,,,0.02,Acu-Link.com,2013-05-20 09:14:00,
2013-05-20 05:29:00,57.6,57.3,29.96,West,270,0.0,-999.0,99,-99.99,,,0.02,Acu-Link.com,2013-05-20 09:29:00,
2013-05-20 05:45:00,57.6,57.3,29.97,SE,135,0.0,-999.0,99,-99.99,,,0.02,Acu-Link.com,2013-05-20 09:45:00,
2013-05-20 06:00:00,57.7,57.4,29.96,SSE,157,0.0,-999.0,99,-99.99,,,0.02,Acu-Link.com,2013-05-20 10:00:00,
2013-05-20 06:15:00,57.9,57.6,29.96,SSE,157,4.2,-999.0,99,-99.99,,,0.02,Acu-Link.com,2013-05-20 10:15:00,
2013-05-20 06:30:00,58.3,58.0,29.96,South,180,2.7,-999.0,99,-99.99,,,0.02,Acu-Link.com,2013-05-20 10:30:00,
2013-05-20 06:45:00,58.6,58.3,29.96,South,180,4.7,-999.0,99,-99.99,,,0.02,Acu-Link.com,2013-05-20 10:45:00,
2013-05-20 07:00:00,59.2,58.9,29.96,NE,45,0.0,-999.0,99,-99.99,,,0.02,Acu-Link.com,2013-05-20 11:00:00,
2013-05-20 07:15:00,59.4,59.1,29.95,SW,225,3.2,-999.0,99,-99.99,,,0.02,Acu-Link.com,2013-05-20 11:15:00,
2013-05-20 07:30:00,59.7,59.4,29.95,South,180,2.7,-999.0,99,-99.99,,,0.02,Acu-Link.com,2013-05-20 11:30:00,
2013-05-20 07:45:00,60.1,59.8,29.95,SW,225,4.7,-999.0,99,-99.99,,,0.02,Acu-Link.com,2013-05-20 11:45:00,
2013-05-20 08:01:00,61.5,61.2,29.95,SE,135,2.2,-999.0,99,-99.99,,,0.02,Acu-Link.com,2013-05-20 12:01:00,
2013-05-20 08:16:00,62.1,61.5,29.95,SSW,202,4.7,-999.0,98,-99.99,,,0.02,Acu-Link.com,2013-05-20 12:16:00,
2013-05-20 08:31:00,62.6,61.7,29.95,West,270,4.2,-999.0,97,-99.99,,,0.02,Acu-Link.com,2013-05-20 12:31:00,
2013-05-20 08:46:00,63.3,62.4,29.95,WNW,292,3.2,-999.0,97,-99.99,,,0.02,Acu-Link.com,2013-05-20 12:46:00,
2013-05-20 09:01:00,63.9,62.4,29.94,WSW,247,2.7,-999.0,95,-99.99,,,0.02,Acu-Link.com,2013-05-20 13:01:00,
2013-05-20 09:16:00,64.6,63.1,29.94,SW,225,6.3,-999.0,95,-99.99,,,0.02,Acu-Link.com,2013-05-20 13:16:00,
2013-05-20 09:31:00,66.9,64.2,29.93,NNW,337,2.7,-999.0,91,-99.99,,,0.02,Acu-Link.com,2013-05-20 13:31:00,
2013-05-20 09:47:00,67.6,64.6,29.93,East,90,6.8,-999.0,90,-99.99,,,0.02,Acu-Link.com,2013-05-20 13:47:00,
2013-05-20 10:02:00,68.7,64.3,29.93,SSW,202,3.7,-999.0,86,-99.99,,,0.02,Acu-Link.com,2013-05-20 14:02:00,
2013-05-20 10:17:00,69.6,64.9,29.91,NW,315,6.8,-999.0,85,-99.99,,,0.02,Acu-Link.com,2013-05-20 14:17:00,
2013-05-20 10:32:00,70.9,65.5,29.91,South,180,5.8,-999.0,83,-99.99,,,0.02,Acu-Link.com,2013-05-20 14:32:00,
2013-05-20 10:47:00,71.6,65.8,29.91,ESE,112,4.2,-999.0,82,-99.99,,,0.02,Acu-Link.com,2013-05-20 14:47:00,
2013-05-20 11:02:00,73.6,67.4,29.90,SSW,202,4.7,-999.0,81,-99.99,,,0.02,Acu-Link.com,2013-05-20 15:02:00,
2013-05-20 11:17:00,74.7,67.0,29.90,NNE,22,4.2,-999.0,77,-99.99,,,0.02,Acu-Link.com,2013-05-20 15:17:00,
2013-05-20 11:32:00,76.3,66.6,29.89,NW,315,6.8,-999.0,72,-99.99,,,0.02,Acu-Link.com,2013-05-20 15:32:00,
2013-05-20 11:48:00,76.8,66.3,29.88,WSW,247,6.8,-999.0,70,-99.99,,,0.02,Acu-Link.com,2013-05-20 15:48:00,
2013-05-20 12:03:00,78.4,66.5,29.88,WSW,247,2.2,-999.0,67,-99.99,,,0.02,Acu-Link.com,2013-05-20 16:03:00,
2013-05-20 12:18:00,77.4,66.4,29.87,NNW,337,6.8,-999.0,69,-99.99,,,0.02,Acu-Link.com,2013-05-20 16:18:00,
2013-05-20 12:33:00,78.1,66.7,29.86,ENE,67,5.8,-999.0,68,-99.99,,,0.02,Acu-Link.com,2013-05-20 16:33:00,
2013-05-20 12:48:00,78.8,66.5,29.86,West,270,6.3,-999.0,66,-99.99,,,0.02,Acu-Link.com,2013-05-20 16:48:00,
2013-05-20 13:03:00,79.2,66.0,29.85,NNW,337,6.3,-999.0,64,-99.99,,,0.02,Acu-Link.com,2013-05-20 17:03:00,
2013-05-20 13:18:00,79.3,66.0,29.85,West,270,3.2,-999.0,64,-99.99,,,0.02,Acu-Link.com,2013-05-20 17:18:00,
2013-05-20 13:34:00,81.1,67.3,29.84,NNW,337,3.2,-999.0,63,-99.99,,,0.02,Acu-Link.com,2013-05-20 17:34:00,
2013-05-20 13:49:00,81.3,67.0,29.83,South,180,3.2,-999.0,62,-99.99,,,0.02,Acu-Link.com,2013-05-20 17:49:00,
2013-05-20 14:04:00,80.8,66.5,29.83,SSW,202,4.2,-999.0,62,-99.99,,,0.02,Acu-Link.com,2013-05-20 18:04:00,
2013-05-20 14:19:00,82.9,69.0,29.82,NNW,337,2.7,-999.0,63,-99.99,,,0.02,Acu-Link.com,2013-05-20 18:19:00,
2013-05-20 14:34:00,81.7,66.9,29.82,West,270,4.7,-999.0,61,-99.99,,,0.02,Acu-Link.com,2013-05-20 18:34:00,
2013-05-20 14:49:00,82.4,67.6,29.81,West,270,4.7,-999.0,61,-99.99,,,0.02,Acu-Link.com,2013-05-20 18:49:00,
2013-05-20 15:05:00,86.4,68.8,29.80,WNW,292,1.7,-999.0,56,-99.99,,,0.02,Acu-Link.com,2013-05-20 19:05:00,
2013-05-20 15:20:00,84.7,68.3,29.80,ENE,67,3.2,-999.0,58,-99.99,,,0.02,Acu-Link.com,2013-05-20 19:20:00,
2013-05-20 15:35:00,84.0,67.1,29.80,WNW,292,2.7,-999.0,57,-99.99,,,0.02,Acu-Link.com,2013-05-20 19:35:00,
2013-05-20 15:50:00,83.8,66.9,29.80,NW,315,5.8,-999.0,57,-99.99,,,0.02,Acu-Link.com,2013-05-20 19:50:00,
2013-05-20 16:05:00,85.3,67.3,29.79,East,90,3.2,-999.0,55,-99.99,,,0.02,Acu-Link.com,2013-05-20 20:05:00,
2013-05-20 16:20:00,84.6,67.1,29.79,NW,315,5.3,-999.0,56,-99.99,,,0.02,Acu-Link.com,2013-05-20 20:20:00,
2013-05-20 16:35:00,86.2,68.1,29.78,SSE,157,1.7,-999.0,55,-99.99,,,0.02,Acu-Link.com,2013-05-20 20:35:00,
2013-05-20 16:51:00,83.5,67.6,29.78,WSW,247,3.7,-999.0,59,-99.99,,,0.02,Acu-Link.com,2013-05-20 20:51:00,
2013-05-20 17:06:00,83.7,68.3,29.80,SW,225,2.7,-999.0,60,-99.99,,,0.02,Acu-Link.com,2013-05-20 21:06:00,
2013-05-20 17:21:00,84.0,67.1,29.80,NW,315,4.7,-999.0,57,-99.99,,,0.02,Acu-Link.com,2013-05-20 21:21:00,
2013-05-20 17:36:00,83.3,68.4,29.80,WNW,292,4.2,-999.0,61,-99.99,,,0.02,Acu-Link.com,2013-05-20 21:36:00,
2013-05-20 17:51:00,84.4,67.5,29.80,WNW,292,4.7,-999.0,57,-99.99,,,0.02,Acu-Link.com,2013-05-20 21:51:00,
2013-05-20 18:06:00,82.6,67.3,29.80,West,270,4.7,-999.0,60,-99.99,,,0.02,Acu-Link.com,2013-05-20 22:06:00,
2013-05-20 18:21:00,83.8,67.4,29.81,West,270,3.7,-999.0,58,-99.99,,,0.02,Acu-Link.com,2013-05-20 22:21:00,
2013-05-20 18:36:00,83.3,67.9,29.80,WSW,247,2.7,-999.0,60,-99.99,,,0.02,Acu-Link.com,2013-05-20 22:36:00,
2013-05-20 18:51:00,83.1,67.8,29.80,West,270,2.2,-999.0,60,-99.99,,,0.02,Acu-Link.com,2013-05-20 22:51:00,
2013-05-20 19:07:00,81.3,68.4,29.80,SSW,202,0.0,-999.0,65,-99.99,,,0.02,Acu-Link.com,2013-05-20 23:07:00,
2013-05-20 19:22:00,79.7,69.9,29.80,South,180,0.0,-999.0,72,-99.99,,,0.02,Acu-Link.com,2013-05-20 23:22:00,
2013-05-20 19:37:00,78.8,70.2,29.79,WSW,247,0.0,-999.0,75,-99.99,,,0.02,Acu-Link.com,2013-05-20 23:37:00,
2013-05-20 19:52:00,77.2,69.8,29.79,WSW,247,0.0,-999.0,78,-99.99,,,0.02,Acu-Link.com,2013-05-20 23:52:00,
2013-05-20 20:07:00,75.6,69.3,29.80,WSW,247,0.0,-999.0,81,-99.99,,,0.02,Acu-Link.com,2013-05-21 00:07:00,
2013-05-20 20:22:00,72.7,68.9,29.80,South,180,0.0,-999.0,88,-99.99,,,0.02,Acu-Link.com,2013-05-21 00:22:00,
2013-05-20 20:37:00,72.1,68.7,29.82,ESE,112,0.0,-999.0,89,-99.99,,,0.02,Acu-Link.com,2013-05-21 00:37:00,
2013-05-20 20:52:00,70.5,67.7,29.82,ESE,112,0.0,-999.0,91,-99.99,,,0.02,Acu-Link.com,2013-05-21 00:52:00,
2013-05-20 21:07:00,70.2,67.4,29.82,ESE,112,0.0,-999.0,91,-99.99,,,0.02,Acu-Link.com,2013-05-21 01:07:00,
2013-05-20 21:23:00,69.1,66.4,29.82,East,90,0.0,-999.0,91,-99.99,,,0.02,Acu-Link.com,2013-05-21 01:23:00,
2013-05-20 21:38:00,67.8,66.3,29.83,WSW,247,0.0,-999.0,95,-99.99,,,0.02,Acu-Link.com,2013-05-21 01:38:00,
2013-05-20 21:53:00,67.1,65.3,29.84,SW,225,0.0,-999.0,94,-99.99,,,0.02,Acu-Link.com,2013-05-21 01:53:00,
2013-05-20 22:08:00,66.2,65.6,29.85,WSW,247,0.0,-999.0,98,-99.99,,,0.02,Acu-Link.com,2013-05-21 02:08:00,
2013-05-20 22:23:00,65.7,64.8,29.84,South,180,0.0,-999.0,97,-99.99,,,0.02,Acu-Link.com,2013-05-21 02:23:00,
2013-05-20 22:54:00,65.1,64.8,29.84,NW,315,1.7,-999.0,99,-99.99,,,0.02,Acu-Link.com,2013-05-21 02:54:00,
2013-05-20 23:09:00,64.9,64.6,29.84,South,180,0.0,-999.0,99,-99.99,,,0.02,Acu-Link.com,2013-05-21 03:09:00,
2013-05-20 23:24:00,64.6,64.3,29.85,South,180,0.0,-999.0,99,-99.99,,,0.02,Acu-Link.com,2013-05-21 03:24:00,
2013-05-20 23:39:00,63.7,63.4,29.84,South,180,0.0,-999.0,99,-99.99,,,0.02,Acu-Link.com,2013-05-21 03:39:00,
2013-05-20 23:54:00,63.3,63.0,29.84,SE,135,0.0,-999.0,99,-99.99,,,0.02,Acu-Link.com,2013-05-21 03:54:00,